Time;durP1;ratioP1;P1;durP2;ratioP2;P2;SDS_P1;SDS_P2;PMS_P1;PMS_P2;Temp;Humidity;BMP_temperature;BMP_pressure;BME280_temperature;BME280_humidity;BME280_pressure;Samples;Min_cycle;Max_cycle;Signal;HPM_P1;HPM_P2
2023/03/24 05:30:37;;;;;;;;;;;;;;;12.79;66.63;97032.31;5798510;23;20374;-62
2023/03/24 05:33:02;;;;;;;;;;;;;;;12.85;66.47;97034.38;4974715;28;19965;-61
2023/03/24 05:35:28;;;;;;;;;;;;;;;12.96;66.23;97046.50;4967441;28;19933;-62
2023/03/24 05:37:53;;;;;;;;;;;;;;;12.92;66.55;97039.88;4975708;28;19995;-63
2023/03/24 05:40:18;;;;;;;;;;;;;;;12.89;66.07;97038.34;4972934;28;19955;-63
2023/03/24 05:42:43;;;;;;;;;;;;;;;12.92;67.05;97037.25;4957711;28;19946;-63
2023/03/24 05:45:09;;;;;;;;;;;;;;;12.90;66.77;97040.00;4954298;28;19964;-63
2023/03/24 05:47:34;;;;;;;;;;;;;;;12.90;66.49;97045.28;4957084;28;19918;-63
2023/03/24 05:49:59;;;;;;;;;;;;;;;12.90;66.56;97054.97;4952580;28;20017;-62
2023/03/24 05:52:25;;;;;;;;;;;;;;;13.05;66.25;97059.59;4955488;29;19958;-63
2023/03/24 05:54:51;;;;;;;;;;;;;;;13.06;66.31;97061.25;4958897;28;19969;-62
2023/03/24 05:57:16;;;;;;;;;;;;;;;12.99;66.18;97057.56;4985759;28;19918;-62
2023/03/24 05:59:41;;;;;;;;;;;;;;;13.00;65.76;97067.09;4952713;28;20535;-62
2023/03/24 06:02:06;;;;;;;;;;;;;;;13.05;66.43;97075.38;4950868;28;19925;-62
2023/03/24 06:04:31;;;;;;;;;;;;;;;13.12;66.46;97078.25;4958558;28;19918;-62
2023/03/24 06:07:01;;;;;;;;;;;;;;;13.14;66.01;97070.19;4950807;28;20609;-63
2023/03/24 06:09:31;;;;;;;;;;;;;;;13.19;65.91;97071.41;4983542;28;19925;-61
2023/03/24 06:11:57;;;;;;;;;;;;;;;13.17;66.00;97067.28;4935681;29;19919;-62
2023/03/24 06:14:22;;;;;;;;;;;;;;;13.14;66.31;97062.31;4949998;29;19929;-64
2023/03/24 06:16:48;;;;;;;;;;;;;;;14.35;64.97;97058.19;4958731;28;19922;-62
2023/03/24 06:19:14;;;;;;;;;;;;;;;15.46;61.45;97043.06;4957479;28;20682;-62
2023/03/24 06:21:40;;;;;;;;;;;;;;;15.92;58.89;97045.25;4955453;28;19918;-62
2023/03/24 06:24:05;;;;;;;;;;;;;;;15.78;56.89;97058.13;4953563;28;20562;-62
2023/03/24 06:26:30;;;;;;;;;;;;;;;15.36;58.05;97059.06;4954735;28;19925;-63
2023/03/24 06:28:56;;;;;;;;;;;;;;;14.94;59.76;97064.44;4959845;28;19929;-64
2023/03/24 06:31:21;;;;;;;;;;;;;;;14.65;60.39;97078.00;4957354;28;20458;-65
2023/03/24 06:33:46;;;;;;;;;;;;;;;14.39;61.50;97081.47;4956846;28;19918;-64
2023/03/24 06:36:12;;;;;;;;;;;;;;;14.19;62.15;97087.94;4953653;29;19995;-64
2023/03/24 06:38:37;;;;;;;;;;;;;;;14.00;62.60;97099.47;4954833;28;19976;-63
2023/03/24 06:41:03;;;;;;;;;;;;;;;13.86;63.17;97108.78;4953028;28;20005;-64
2023/03/24 06:43:28;;;;;;;;;;;;;;;13.76;63.61;97126.47;4953687;28;19914;-64
2023/03/24 06:45:54;;;;;;;;;;;;;;;13.60;64.40;97121.06;4953528;28;20451;-64
2023/03/24 06:48:19;;;;;;;;;;;;;;;13.54;65.11;97141.75;4954861;28;19918;-65
2023/03/24 06:50:45;;;;;;;;;;;;;;;13.51;65.45;97147.31;4953829;28;20372;-64
2023/03/24 06:53:10;;;;;;;;;;;;;;;13.54;65.44;97128.59;4958186;28;20295;-64
2023/03/24 06:55:35;;;;;;;;;;;;;;;13.54;65.58;97143.56;4954192;28;19919;-62
2023/03/24 06:58:01;;;;;;;;;;;;;;;13.58;65.54;97150.19;4954564;28;19978;-65
2023/03/24 07:00:28;;;;;;;;;;;;;;;13.59;65.57;97154.47;4952870;28;19918;-63
2023/03/24 07:02:53;;;;;;;;;;;;;;;13.62;65.65;97162.06;4954378;28;19946;-64
2023/03/24 07:05:18;;;;;;;;;;;;;;;13.71;65.72;97161.19;4954454;28;20406;-64
2023/03/24 07:07:43;;;;;;;;;;;;;;;13.83;65.38;97172.31;4954190;28;19915;-64
2023/03/24 07:10:09;;;;;;;;;;;;;;;13.84;65.21;97175.81;4953947;28;19918;-64
2023/03/24 07:12:35;;;;;;;;;;;;;;;13.84;65.45;97179.28;4953941;28;19921;-64
2023/03/24 07:15:03;;;;;;;;;;;;;;;13.89;65.45;97176.19;4953965;28;19922;-64
2023/03/24 07:17:28;;;;;;;;;;;;;;;13.85;65.53;97177.47;4953177;29;19914;-64
2023/03/24 07:19:53;;;;;;;;;;;;;;;13.85;65.92;97178.28;4956961;28;19915;-64
2023/03/24 07:22:18;;;;;;;;;;;;;;;13.88;65.94;97177.97;4954065;28;20004;-64
2023/03/24 07:24:43;;;;;;;;;;;;;;;13.93;66.14;97172.25;4953846;28;19946;-64
2023/03/24 07:27:09;;;;;;;;;;;;;;;13.92;66.58;97174.06;4952931;29;19914;-64
2023/03/24 07:29:35;;;;;;;;;;;;;;;13.90;66.81;97170.78;4953772;28;19970;-63
2023/03/24 07:32:00;;;;;;;;;;;;;;;13.86;66.94;97174.66;4951279;28;19918;-64
2023/03/24 07:34:26;;;;;;;;;;;;;;;13.81;67.29;97182.22;4952552;28;19923;-65
2023/03/24 07:36:51;;;;;;;;;;;;;;;13.80;67.33;97180.56;4953843;28;20009;-64
2023/03/24 07:39:16;;;;;;;;;;;;;;;13.79;67.32;97184.16;4952630;29;19981;-64
2023/03/24 07:41:42;;;;;;;;;;;;;;;13.82;66.17;97178.59;4952247;28;19922;-65
2023/03/24 07:44:07;;;;;;;;;;;;;;;13.78;66.98;97182.50;4953713;28;19922;-64
2023/03/24 07:46:32;;;;;;;;;;;;;;;13.76;67.23;97181.81;4953921;28;20380;-64
2023/03/24 07:48:57;;;;;;;;;;;;;;;13.75;67.07;97174.91;4953597;28;19923;-64
2023/03/24 07:51:23;;;;;;;;;;;;;;;13.78;67.11;97182.50;4953223;28;19920;-65
2023/03/24 07:53:48;;;;;;;;;;;;;;;13.85;67.49;97177.47;4952116;28;20004;-65
2023/03/24 07:56:13;;;;;;;;;;;;;;;13.93;66.88;97174.88;4952309;29;19918;-65
2023/03/24 07:58:39;;;;;;;;;;;;;;;13.91;66.89;97172.41;4952481;29;19925;-63
2023/03/24 08:01:09;;;;;;;;;;;;;;;13.94;66.25;97173.94;4953199;28;20013;-64
2023/03/24 08:03:35;;;;;;;;;;;;;;;13.91;67.05;97182.97;4952388;29;19942;-65
2023/03/24 08:06:00;;;;;;;;;;;;;;;13.95;66.81;97172.94;4953108;28;19954;-65
2023/03/24 08:08:26;;;;;;;;;;;;;;;13.97;67.29;97166.53;4953494;28;20388;-65
2023/03/24 08:10:51;;;;;;;;;;;;;;;14.05;66.49;97163.16;4953021;28;19915;-66
2023/03/24 08:13:17;;;;;;;;;;;;;;;14.09;66.20;97153.94;4953359;28;19920;-67
2023/03/24 08:15:42;;;;;;;;;;;;;;;14.09;66.03;97153.13;4953175;28;20009;-64
2023/03/24 08:18:07;;;;;;;;;;;;;;;14.11;66.09;97159.06;4952397;29;19914;-64
2023/03/24 08:20:32;;;;;;;;;;;;;;;14.08;66.58;97168.13;4953187;28;20300;-65
2023/03/24 08:22:59;;;;;;;;;;;;;;;14.08;66.75;97170.75;4952923;29;20151;-66
2023/03/24 08:25:25;;;;;;;;;;;;;;;14.05;66.94;97172.88;4953330;28;19915;-66
2023/03/24 08:27:50;;;;;;;;;;;;;;;14.00;67.77;97171.53;4952151;29;19922;-66
2023/03/24 08:30:17;;;;;;;;;;;;;;;13.96;67.66;97172.78;4953084;28;20369;-63
2023/03/24 08:32:49;;;;;;;;;;;;;;;13.98;67.98;97181.38;4951957;29;19914;-66
2023/03/24 08:35:15;;;;;;;;;;;;;;;13.95;67.77;97181.69;4951819;29;19926;-64
2023/03/24 08:37:42;;;;;;;;;;;;;;;13.98;68.13;97189.28;4953028;28;19920;-65
2023/03/24 08:40:12;;;;;;;;;;;;;;;14.03;67.88;97194.09;4951362;28;19918;-65
2023/03/24 08:42:37;;;;;;;;;;;;;;;14.02;68.51;97189.81;4952863;28;20299;-63
2023/03/24 08:45:02;;;;;;;;;;;;;;;14.04;69.06;97197.56;4955639;29;19914;-65
2023/03/24 08:47:28;;;;;;;;;;;;;;;14.02;69.23;97201.19;4957067;28;19914;-64
2023/03/24 08:49:59;;;;;;;;;;;;;;;13.99;69.89;97201.47;4956580;28;19918;-64
2023/03/24 08:52:24;;;;;;;;;;;;;;;13.93;71.05;97199.44;4956522;28;20389;-65
2023/03/24 08:54:50;;;;;;;;;;;;;;;13.90;71.20;97199.75;4955361;29;19950;-65
2023/03/24 08:57:16;;;;;;;;;;;;;;;13.84;72.20;97208.25;4955563;29;19914;-65
2023/03/24 08:59:41;;;;;;;;;;;;;;;13.78;72.77;97209.69;4955265;29;19914;-65
2023/03/24 09:02:08;;;;;;;;;;;;;;;13.77;73.02;97207.22;4963488;28;19914;-65
2023/03/24 09:04:33;;;;;;;;;;;;;;;13.75;72.33;97209.97;4955192;29;20292;-66
2023/03/24 09:06:59;;;;;;;;;;;;;;;13.76;72.67;97209.03;4963428;28;19925;-65
2023/03/24 09:09:24;;;;;;;;;;;;;;;13.71;73.90;97218.34;4961945;28;20368;-64
2023/03/24 09:11:49;;;;;;;;;;;;;;;13.59;74.36;97215.06;4954811;28;20388;-64
2023/03/24 09:14:15;;;;;;;;;;;;;;;13.56;75.45;97219.81;4956268;28;19924;-65
2023/03/24 09:16:42;;;;;;;;;;;;;;;13.51;75.89;97221.06;4956410;28;19914;-65
2023/03/24 09:19:08;;;;;;;;;;;;;;;13.47;76.51;97217.09;4955363;29;19915;-64
2023/03/24 09:21:33;;;;;;;;;;;;;;;13.45;75.98;97213.75;4955778;28;19977;-64
2023/03/24 09:23:58;;;;;;;;;;;;;;;13.36;76.93;97208.56;4955140;28;19918;-65
2023/03/24 09:26:23;;;;;;;;;;;;;;;13.32;77.23;97205.41;4956126;28;19938;-64
2023/03/24 09:28:48;;;;;;;;;;;;;;;13.27;77.62;97202.34;4956232;28;19918;-64
2023/03/24 09:31:14;;;;;;;;;;;;;;;13.28;78.51;97196.09;4955669;28;20126;-64
2023/03/24 09:33:40;;;;;;;;;;;;;;;13.23;79.18;97182.53;4954627;29;20021;-64
2023/03/24 09:36:05;;;;;;;;;;;;;;;13.28;79.34;97159.25;4962055;28;19922;-64
2023/03/24 09:38:32;;;;;;;;;;;;;;;13.33;79.35;97162.28;4956146;28;19918;-64
2023/03/24 09:40:59;;;;;;;;;;;;;;;13.39;79.05;97185.41;4956349;28;19915;-65
2023/03/24 09:43:41;;;;;;;;;;;;;;;13.42;78.66;97193.00;4955171;29;20002;-64
2023/03/24 09:46:10;;;;;;;;;;;;;;;13.45;79.11;97187.41;4955159;29;19977;-63
2023/03/24 09:48:38;;;;;;;;;;;;;;;13.49;78.70;97182.72;4955181;29;19937;-63
2023/03/24 09:51:07;;;;;;;;;;;;;;;13.57;78.48;97192.50;4955219;28;20008;-63
2023/03/24 09:53:36;;;;;;;;;;;;;;;13.71;77.89;97186.72;4955120;28;19953;-64
2023/03/24 09:56:12;;;;;;;;;;;;;;;13.78;78.94;97167.50;4955441;28;20013;-64
2023/03/24 09:58:40;;;;;;;;;;;;;;;14.01;77.99;97182.88;4955167;29;19914;-65
2023/03/24 10:01:07;;;;;;;;;;;;;;;14.18;76.37;97186.50;4954823;28;19921;-66
2023/03/24 10:03:32;;;;;;;;;;;;;;;14.26;76.70;97189.19;4955761;28;19937;-64
2023/03/24 10:06:00;;;;;;;;;;;;;;;14.41;76.29;97195.56;4953868;28;20303;-64
2023/03/24 18:27:24;;;;;;;;;;;;;;;10.89;71.60;97207.19;5129298;23;19933;-64
2023/03/24 18:29:49;;;;;;;;;;;;;;;10.88;71.69;97205.56;4973330;28;19930;-63
2023/03/24 18:32:14;;;;;;;;;;;;;;;10.89;71.01;97202.78;4974221;28;19918;-65
2023/03/24 18:34:43;;;;;;;;;;;;;;;10.84;71.28;97201.50;4966857;28;19918;-63
2023/03/24 18:37:08;;;;;;;;;;;;;;;10.78;72.24;97208.13;4959350;28;19914;-64
2023/03/24 18:39:34;;;;;;;;;;;;;;;10.74;71.90;97216.41;4955555;28;21185;-63
2023/03/24 18:41:59;;;;;;;;;;;;;;;10.66;72.46;97220.47;4953660;29;20347;-64
2023/03/24 18:44:24;;;;;;;;;;;;;;;10.66;72.77;97228.34;4954934;28;20350;-64
2023/03/24 18:46:50;;;;;;;;;;;;;;;10.60;72.32;97215.75;4963132;28;19925;-64
2023/03/24 18:49:15;;;;;;;;;;;;;;;10.62;72.75;97221.69;4955285;29;19922;-67
2023/03/24 18:51:42;;;;;;;;;;;;;;;10.57;72.86;97226.50;4957621;28;19914;-64
2023/03/24 18:54:08;;;;;;;;;;;;;;;10.52;73.41;97225.22;4952302;28;19918;-63
2023/03/24 18:56:33;;;;;;;;;;;;;;;10.50;73.89;97227.97;4952412;29;19915;-65
2023/03/24 18:58:58;;;;;;;;;;;;;;;10.45;73.71;97230.97;4954800;29;20407;-63
2023/03/24 19:01:23;;;;;;;;;;;;;;;10.44;74.40;97239.81;4953869;28;19922;-64
2023/03/24 19:03:49;;;;;;;;;;;;;;;10.41;74.87;97233.97;4952754;29;19969;-64
2023/03/24 19:06:14;;;;;;;;;;;;;;;10.38;75.12;97242.09;4937034;29;19914;-63
2023/03/24 19:08:43;;;;;;;;;;;;;;;10.34;74.99;97238.91;4951224;29;20295;-64
2023/03/24 19:11:08;;;;;;;;;;;;;;;10.35;75.50;97229.25;4953997;29;20292;-63
2023/03/24 19:13:34;;;;;;;;;;;;;;;10.36;75.85;97236.16;4952330;29;20410;-63
2023/03/24 19:15:59;;;;;;;;;;;;;;;10.34;76.18;97238.06;4953366;28;20435;-63
2023/03/24 19:18:24;;;;;;;;;;;;;;;10.35;76.50;97234.50;4955011;29;19915;-61
2023/03/24 19:20:53;;;;;;;;;;;;;;;10.25;76.63;97233.56;4954848;29;19915;-63
2023/03/24 19:23:18;;;;;;;;;;;;;;;10.23;76.80;97237.13;4949257;29;20332;-64
2023/03/24 19:25:43;;;;;;;;;;;;;;;10.20;77.04;97231.31;4934932;29;19924;-63
2023/03/24 19:28:09;;;;;;;;;;;;;;;10.19;77.19;97225.25;4954628;28;19919;-64
2023/03/24 19:30:36;;;;;;;;;;;;;;;10.17;77.56;97235.03;4954722;29;19921;-63
2023/03/24 19:33:01;;;;;;;;;;;;;;;10.16;77.44;97233.38;4952754;29;19937;-64
2023/03/24 19:35:26;;;;;;;;;;;;;;;10.12;77.91;97241.63;4952210;28;19922;-64
2023/03/24 19:37:52;;;;;;;;;;;;;;;10.11;78.04;97248.63;4952636;29;19918;-64
2023/03/24 19:40:17;;;;;;;;;;;;;;;10.11;77.97;97248.63;4953271;29;20062;-64
2023/03/24 19:42:43;;;;;;;;;;;;;;;10.08;78.39;97242.78;4953033;29;19922;-64
2023/03/24 19:45:09;;;;;;;;;;;;;;;10.05;78.15;97254.38;4953192;29;19953;-64
2023/03/24 19:47:35;;;;;;;;;;;;;;;10.04;78.73;97255.31;4954415;28;19914;-63
2023/03/24 19:50:00;;;;;;;;;;;;;;;10.02;78.69;97259.03;4953290;29;19915;-64
2023/03/24 19:52:26;;;;;;;;;;;;;;;10.02;78.65;97266.91;4953395;29;20384;-63
2023/03/24 19:54:51;;;;;;;;;;;;;;;10.01;79.00;97271.28;4952292;29;19922;-62
2023/03/24 19:57:19;;;;;;;;;;;;;;;9.98;79.10;97266.31;4953090;28;20195;-64
2023/03/24 19:59:44;;;;;;;;;;;;;;;9.98;79.11;97264.53;4954332;29;19997;-64
2023/03/24 20:02:14;;;;;;;;;;;;;;;9.99;79.41;97265.34;4953215;29;19954;-63
2023/03/24 20:04:40;;;;;;;;;;;;;;;9.98;79.37;97279.41;4951618;29;19926;-64
2023/03/24 20:07:05;;;;;;;;;;;;;;;10.02;79.66;97272.13;4952943;28;20014;-64
2023/03/24 20:09:30;;;;;;;;;;;;;;;10.00;79.26;97272.25;4952578;29;20360;-62
2023/03/24 20:11:55;;;;;;;;;;;;;;;10.02;79.48;97266.91;4953223;29;20063;-63
2023/03/24 20:14:21;;;;;;;;;;;;;;;10.00;79.50;97264.38;4952395;29;19980;-64
2023/03/24 20:16:46;;;;;;;;;;;;;;;10.02;79.50;97278.19;4953982;28;20029;-64
2023/03/24 20:19:11;;;;;;;;;;;;;;;10.01;79.68;97271.28;4954125;29;19914;-65
2023/03/24 20:21:36;;;;;;;;;;;;;;;10.03;79.47;97273.78;4954153;29;19921;-64
2023/03/24 20:24:02;;;;;;;;;;;;;;;10.02;79.37;97270.34;4952386;29;19918;-64
2023/03/24 20:26:28;;;;;;;;;;;;;;;10.02;79.44;97274.75;4952404;28;20382;-62
2023/03/24 20:28:53;;;;;;;;;;;;;;;10.04;79.17;97275.44;4949893;29;19919;-63
2023/03/24 20:31:19;;;;;;;;;;;;;;;10.03;79.32;97279.84;4952294;28;19969;-64
2023/03/24 20:33:44;;;;;;;;;;;;;;;10.05;79.37;97290.19;4953670;28;19914;-64
2023/03/24 20:36:09;;;;;;;;;;;;;;;10.07;78.88;97283.06;4952516;29;19957;-64
2023/03/24 20:38:35;;;;;;;;;;;;;;;10.08;78.98;97285.56;4947713;28;19953;-64
2023/03/24 20:41:00;;;;;;;;;;;;;;;10.08;78.84;97284.72;4956200;29;19919;-64
2023/03/24 20:43:26;;;;;;;;;;;;;;;10.09;78.53;97287.22;4957320;28;20349;-64
2023/03/24 20:45:53;;;;;;;;;;;;;;;10.10;78.04;97277.56;4954265;28;19919;-65
2023/03/24 20:48:18;;;;;;;;;;;;;;;10.08;78.08;97289.97;4954536;28;19919;-64
2023/03/24 20:50:43;;;;;;;;;;;;;;;10.07;78.39;97297.00;4957369;28;20364;-64
2023/03/24 20:53:09;;;;;;;;;;;;;;;10.11;77.96;97292.34;4951514;28;20369;-65
2023/03/24 20:55:34;;;;;;;;;;;;;;;10.10;77.59;97293.28;4956840;28;20381;-64
2023/03/24 20:58:00;;;;;;;;;;;;;;;10.09;77.71;97297.72;4955702;28;19923;-63
2023/03/24 21:00:25;;;;;;;;;;;;;;;10.06;77.88;97303.19;4953026;28;19918;-65
2023/03/24 21:02:51;;;;;;;;;;;;;;;10.06;77.92;97297.97;4957244;29;20010;-65
2023/03/24 21:05:16;;;;;;;;;;;;;;;10.03;77.67;97303.44;4956373;28;19918;-64
2023/03/24 21:07:42;;;;;;;;;;;;;;;10.01;78.12;97289.63;4957010;29;19929;-64
2023/03/24 21:10:08;;;;;;;;;;;;;;;9.99;77.77;97291.56;4954030;29;20388;-65
2023/03/24 21:12:33;;;;;;;;;;;;;;;9.99;78.23;97288.94;4956813;28;19922;-64
2023/03/24 21:14:58;;;;;;;;;;;;;;;9.95;77.91;97290.13;4954216;29;19926;-65
2023/03/24 21:17:31;;;;;;;;;;;;;;;9.93;78.12;97282.38;4956828;28;19965;-65
2023/03/24 21:19:57;;;;;;;;;;;;;;;9.84;78.07;97272.66;4951699;29;19918;-63
2023/03/24 21:22:23;;;;;;;;;;;;;;;9.90;78.26;97287.03;4960181;28;19981;-65
2023/03/24 21:24:49;;;;;;;;;;;;;;;9.86;78.45;97291.69;4948692;28;19927;-64
2023/03/24 21:27:14;;;;;;;;;;;;;;;9.81;78.37;97287.81;4950741;29;19918;-64
2023/03/24 21:29:40;;;;;;;;;;;;;;;9.80;78.34;97292.19;4952955;28;19926;-64
2023/03/24 21:32:05;;;;;;;;;;;;;;;9.79;78.61;97300.16;4948660;28;19918;-63
2023/03/24 21:34:31;;;;;;;;;;;;;;;9.73;78.79;97296.25;4930756;29;19922;-65
2023/03/24 21:36:56;;;;;;;;;;;;;;;9.74;78.79;97285.66;4944893;28;19914;-65
2023/03/24 21:39:22;;;;;;;;;;;;;;;9.68;78.79;97293.16;4939677;29;19921;-65
2023/03/24 21:41:48;;;;;;;;;;;;;;;9.62;79.34;97304.94;4942846;28;20021;-64
2023/03/24 21:44:13;;;;;;;;;;;;;;;9.63;79.18;97298.75;4950329;29;20001;-65
2023/03/24 21:46:39;;;;;;;;;;;;;;;9.64;79.31;97297.81;4942038;29;19938;-64
2023/03/24 21:49:04;;;;;;;;;;;;;;;9.63;79.17;97296.13;4945135;29;19914;-66
2023/03/24 21:51:32;;;;;;;;;;;;;;;9.59;79.20;97304.34;4945485;28;20390;-65
